sensor_id;sensor_type;location;lat;lon;timestamp;P1;durP1;ratioP1;P2;durP2;ratioP2
12059;SDS011;6091;51.432;6.880;2022-12-20T00:01:30;0.88;;;0.88;;
12059;SDS011;6091;51.432;6.880;2022-12-20T00:04:00;1.30;;;1.20;;
12059;SDS011;6091;51.432;6.880;2022-12-20T00:06:32;1.13;;;1.02;;
12059;SDS011;6091;51.432;6.880;2022-12-20T00:09:01;1.20;;;1.10;;
12059;SDS011;6091;51.432;6.880;2022-12-20T00:11:31;1.15;;;1.05;;
12059;SDS011;6091;51.432;6.880;2022-12-20T00:13:59;1.00;;;0.98;;
12059;SDS011;6091;51.432;6.880;2022-12-20T00:16:26;1.05;;;1.05;;
12059;SDS011;6091;51.432;6.880;2022-12-20T00:18:56;1.13;;;1.13;;
12059;SDS011;6091;51.432;6.880;2022-12-20T00:21:25;1.20;;;1.10;;
12059;SDS011;6091;51.432;6.880;2022-12-20T00:23:54;1.13;;;1.10;;
12059;SDS011;6091;51.432;6.880;2022-12-20T00:26:23;1.23;;;1.13;;
12059;SDS011;6091;51.432;6.880;2022-12-20T00:28:56;0.85;;;0.85;;
12059;SDS011;6091;51.432;6.880;2022-12-20T00:31:26;1.10;;;1.00;;
12059;SDS011;6091;51.432;6.880;2022-12-20T00:33:55;1.13;;;1.05;;
12059;SDS011;6091;51.432;6.880;2022-12-20T00:36:25;0.95;;;0.95;;
12059;SDS011;6091;51.432;6.880;2022-12-20T00:38:55;1.05;;;1.05;;
12059;SDS011;6091;51.432;6.880;2022-12-20T00:41:24;1.20;;;1.10;;
12059;SDS011;6091;51.432;6.880;2022-12-20T00:43:54;0.90;;;0.90;;
12059;SDS011;6091;51.432;6.880;2022-12-20T00:46:21;1.00;;;1.00;;
12059;SDS011;6091;51.432;6.880;2022-12-20T00:48:50;0.95;;;0.95;;
12059;SDS011;6091;51.432;6.880;2022-12-20T00:51:19;1.10;;;1.00;;
12059;SDS011;6091;51.432;6.880;2022-12-20T00:53:50;0.90;;;0.90;;
12059;SDS011;6091;51.432;6.880;2022-12-20T00:56:19;1.13;;;1.08;;
12059;SDS011;6091;51.432;6.880;2022-12-20T00:58:46;1.20;;;1.10;;
12059;SDS011;6091;51.432;6.880;2022-12-20T01:01:24;1.10;;;1.00;;
12059;SDS011;6091;51.432;6.880;2022-12-20T01:03:56;1.00;;;1.00;;
12059;SDS011;6091;51.432;6.880;2022-12-20T01:06:23;1.00;;;1.00;;
12059;SDS011;6091;51.432;6.880;2022-12-20T01:08:54;0.85;;;0.85;;
12059;SDS011;6091;51.432;6.880;2022-12-20T01:11:29;1.15;;;1.00;;
12059;SDS011;6091;51.432;6.880;2022-12-20T01:14:00;0.95;;;0.95;;
12059;SDS011;6091;51.432;6.880;2022-12-20T01:16:38;0.80;;;0.80;;
12059;SDS011;6091;51.432;6.880;2022-12-20T01:19:09;0.95;;;0.95;;
12059;SDS011;6091;51.432;6.880;2022-12-20T01:21:40;1.00;;;1.00;;
12059;SDS011;6091;51.432;6.880;2022-12-20T01:24:11;1.10;;;1.10;;
12059;SDS011;6091;51.432;6.880;2022-12-20T01:26:43;1.10;;;1.05;;
12059;SDS011;6091;51.432;6.880;2022-12-20T01:29:12;0.80;;;0.80;;
12059;SDS011;6091;51.432;6.880;2022-12-20T01:31:40;1.10;;;1.10;;
12059;SDS011;6091;51.432;6.880;2022-12-20T01:34:08;1.08;;;0.98;;
12059;SDS011;6091;51.432;6.880;2022-12-20T01:36:36;0.90;;;0.90;;
12059;SDS011;6091;51.432;6.880;2022-12-20T01:39:06;1.00;;;1.00;;
12059;SDS011;6091;51.432;6.880;2022-12-20T01:41:39;1.00;;;1.00;;
12059;SDS011;6091;51.432;6.880;2022-12-20T01:46:42;1.00;;;1.00;;
12059;SDS011;6091;51.432;6.880;2022-12-20T01:52:01;0.85;;;0.85;;
12059;SDS011;6091;51.432;6.880;2022-12-20T01:54:38;0.93;;;0.90;;
12059;SDS011;6091;51.432;6.880;2022-12-20T01:57:58;0.90;;;0.90;;
12059;SDS011;6091;51.432;6.880;2022-12-20T02:00:44;0.98;;;0.90;;
12059;SDS011;6091;51.432;6.880;2022-12-20T02:03:13;1.10;;;1.00;;
12059;SDS011;6091;51.432;6.880;2022-12-20T02:05:42;1.00;;;1.00;;
12059;SDS011;6091;51.432;6.880;2022-12-20T02:08:12;0.90;;;0.90;;
12059;SDS011;6091;51.432;6.880;2022-12-20T02:10:57;1.20;;;0.98;;
12059;SDS011;6091;51.432;6.880;2022-12-20T02:16:57;0.77;;;0.77;;
12059;SDS011;6091;51.432;6.880;2022-12-20T02:19:54;1.17;;;1.08;;
12059;SDS011;6091;51.432;6.880;2022-12-20T02:28:47;0.70;;;0.70;;
12059;SDS011;6091;51.432;6.880;2022-12-20T02:34:13;0.90;;;0.90;;
12059;SDS011;6091;51.432;6.880;2022-12-20T02:36:42;0.90;;;0.90;;
12059;SDS011;6091;51.432;6.880;2022-12-20T02:39:11;0.98;;;0.90;;
12059;SDS011;6091;51.432;6.880;2022-12-20T02:41:42;0.80;;;0.80;;
12059;SDS011;6091;51.432;6.880;2022-12-20T02:44:21;0.70;;;0.63;;
12059;SDS011;6091;51.432;6.880;2022-12-20T02:47:12;0.80;;;0.80;;
12059;SDS011;6091;51.432;6.880;2022-12-20T02:49:47;1.10;;;1.00;;
12059;SDS011;6091;51.432;6.880;2022-12-20T02:52:16;0.88;;;0.88;;
12059;SDS011;6091;51.432;6.880;2022-12-20T02:54:47;0.80;;;0.80;;
12059;SDS011;6091;51.432;6.880;2022-12-20T03:02:27;0.82;;;0.82;;
12059;SDS011;6091;51.432;6.880;2022-12-20T03:05:16;1.00;;;0.90;;
12059;SDS011;6091;51.432;6.880;2022-12-20T03:07:45;0.80;;;0.80;;
12059;SDS011;6091;51.432;6.880;2022-12-20T03:10:12;0.90;;;0.90;;
12059;SDS011;6091;51.432;6.880;2022-12-20T03:12:39;1.20;;;1.10;;
12059;SDS011;6091;51.432;6.880;2022-12-20T03:15:06;0.75;;;0.75;;
12059;SDS011;6091;51.432;6.880;2022-12-20T03:17:34;0.80;;;0.80;;
12059;SDS011;6091;51.432;6.880;2022-12-20T03:20:03;0.90;;;0.90;;
12059;SDS011;6091;51.432;6.880;2022-12-20T03:22:32;0.80;;;0.80;;
12059;SDS011;6091;51.432;6.880;2022-12-20T03:25:00;0.90;;;0.90;;
12059;SDS011;6091;51.432;6.880;2022-12-20T03:27:27;0.90;;;0.90;;
12059;SDS011;6091;51.432;6.880;2022-12-20T03:29:54;0.82;;;0.82;;
12059;SDS011;6091;51.432;6.880;2022-12-20T03:32:21;0.70;;;0.70;;
12059;SDS011;6091;51.432;6.880;2022-12-20T03:34:48;0.82;;;0.82;;
12059;SDS011;6091;51.432;6.880;2022-12-20T03:37:15;0.90;;;0.90;;
12059;SDS011;6091;51.432;6.880;2022-12-20T03:39:42;0.90;;;0.90;;
12059;SDS011;6091;51.432;6.880;2022-12-20T03:42:09;0.75;;;0.75;;
12059;SDS011;6091;51.432;6.880;2022-12-20T03:44:36;0.90;;;0.90;;
12059;SDS011;6091;51.432;6.880;2022-12-20T03:47:05;1.10;;;1.00;;
12059;SDS011;6091;51.432;6.880;2022-12-20T03:49:32;0.85;;;0.85;;
12059;SDS011;6091;51.432;6.880;2022-12-20T03:51:59;0.80;;;0.80;;
12059;SDS011;6091;51.432;6.880;2022-12-20T03:54:26;1.05;;;0.80;;
12059;SDS011;6091;51.432;6.880;2022-12-20T03:56:53;1.02;;;0.90;;
12059;SDS011;6091;51.432;6.880;2022-12-20T03:59:20;0.80;;;0.80;;
12059;SDS011;6091;51.432;6.880;2022-12-20T04:01:47;0.90;;;0.85;;
12059;SDS011;6091;51.432;6.880;2022-12-20T04:04:14;0.90;;;0.90;;
12059;SDS011;6091;51.432;6.880;2022-12-20T04:06:41;0.80;;;0.80;;
12059;SDS011;6091;51.432;6.880;2022-12-20T04:09:08;0.80;;;0.80;;
12059;SDS011;6091;51.432;6.880;2022-12-20T04:11:35;0.80;;;0.80;;
12059;SDS011;6091;51.432;6.880;2022-12-20T04:14:02;0.80;;;0.80;;
12059;SDS011;6091;51.432;6.880;2022-12-20T04:16:31;0.70;;;0.70;;
12059;SDS011;6091;51.432;6.880;2022-12-20T04:18:59;0.70;;;0.70;;
12059;SDS011;6091;51.432;6.880;2022-12-20T04:21:27;0.60;;;0.60;;
12059;SDS011;6091;51.432;6.880;2022-12-20T04:23:58;0.68;;;0.68;;
12059;SDS011;6091;51.432;6.880;2022-12-20T04:26:26;0.70;;;0.70;;
12059;SDS011;6091;51.432;6.880;2022-12-20T04:28:54;0.68;;;0.68;;
12059;SDS011;6091;51.432;6.880;2022-12-20T04:31:21;0.73;;;0.73;;
12059;SDS011;6091;51.432;6.880;2022-12-20T04:33:50;0.80;;;0.80;;
12059;SDS011;6091;51.432;6.880;2022-12-20T04:36:17;0.60;;;0.60;;
12059;SDS011;6091;51.432;6.880;2022-12-20T04:38:44;0.80;;;0.80;;
12059;SDS011;6091;51.432;6.880;2022-12-20T04:41:11;0.73;;;0.73;;
12059;SDS011;6091;51.432;6.880;2022-12-20T04:43:48;0.80;;;0.80;;
12059;SDS011;6091;51.432;6.880;2022-12-20T04:46:20;0.93;;;0.93;;
12059;SDS011;6091;51.432;6.880;2022-12-20T04:48:49;0.80;;;0.80;;
12059;SDS011;6091;51.432;6.880;2022-12-20T04:51:25;0.70;;;0.70;;
12059;SDS011;6091;51.432;6.880;2022-12-20T04:53:53;0.90;;;0.90;;
12059;SDS011;6091;51.432;6.880;2022-12-20T04:56:30;0.80;;;0.80;;
12059;SDS011;6091;51.432;6.880;2022-12-20T04:58:57;0.70;;;0.70;;
12059;SDS011;6091;51.432;6.880;2022-12-20T05:01:24;1.35;;;0.98;;
12059;SDS011;6091;51.432;6.880;2022-12-20T05:03:52;0.70;;;0.70;;
12059;SDS011;6091;51.432;6.880;2022-12-20T05:06:19;0.90;;;0.90;;
12059;SDS011;6091;51.432;6.880;2022-12-20T05:08:46;1.10;;;0.90;;
12059;SDS011;6091;51.432;6.880;2022-12-20T05:11:14;0.90;;;0.90;;
12059;SDS011;6091;51.432;6.880;2022-12-20T05:13:41;0.98;;;0.98;;
12059;SDS011;6091;51.432;6.880;2022-12-20T05:16:07;0.90;;;0.90;;
12059;SDS011;6091;51.432;6.880;2022-12-20T05:18:35;0.65;;;0.65;;
12059;SDS011;6091;51.432;6.880;2022-12-20T05:21:03;0.70;;;0.70;;
12059;SDS011;6091;51.432;6.880;2022-12-20T05:23:48;0.80;;;0.80;;
12059;SDS011;6091;51.432;6.880;2022-12-20T05:26:35;0.70;;;0.70;;
12059;SDS011;6091;51.432;6.880;2022-12-20T05:29:03;0.90;;;0.73;;
12059;SDS011;6091;51.432;6.880;2022-12-20T05:31:31;0.70;;;0.70;;
12059;SDS011;6091;51.432;6.880;2022-12-20T05:33:59;0.90;;;0.90;;
12059;SDS011;6091;51.432;6.880;2022-12-20T05:36:26;0.90;;;0.90;;
12059;SDS011;6091;51.432;6.880;2022-12-20T05:38:53;0.70;;;0.70;;
12059;SDS011;6091;51.432;6.880;2022-12-20T05:41:28;0.80;;;0.80;;
12059;SDS011;6091;51.432;6.880;2022-12-20T05:43:55;0.80;;;0.80;;
12059;SDS011;6091;51.432;6.880;2022-12-20T05:46:23;0.82;;;0.82;;
12059;SDS011;6091;51.432;6.880;2022-12-20T05:48:50;0.90;;;0.90;;
12059;SDS011;6091;51.432;6.880;2022-12-20T05:51:17;1.00;;;0.70;;
12059;SDS011;6091;51.432;6.880;2022-12-20T05:53:44;0.75;;;0.75;;
12059;SDS011;6091;51.432;6.880;2022-12-20T05:56:11;0.88;;;0.80;;
12059;SDS011;6091;51.432;6.880;2022-12-20T05:58:38;0.60;;;0.60;;
12059;SDS011;6091;51.432;6.880;2022-12-20T06:01:06;0.68;;;0.63;;
12059;SDS011;6091;51.432;6.880;2022-12-20T06:03:35;0.60;;;0.60;;
12059;SDS011;6091;51.432;6.880;2022-12-20T06:06:04;0.65;;;0.65;;
12059;SDS011;6091;51.432;6.880;2022-12-20T06:08:39;0.70;;;0.70;;
12059;SDS011;6091;51.432;6.880;2022-12-20T06:11:07;0.90;;;0.90;;
12059;SDS011;6091;51.432;6.880;2022-12-20T06:13:34;0.95;;;0.95;;
12059;SDS011;6091;51.432;6.880;2022-12-20T06:16:01;0.80;;;0.80;;
12059;SDS011;6091;51.432;6.880;2022-12-20T06:18:28;0.75;;;0.75;;
12059;SDS011;6091;51.432;6.880;2022-12-20T06:20:55;0.80;;;0.80;;
12059;SDS011;6091;51.432;6.880;2022-12-20T06:23:22;0.63;;;0.63;;
12059;SDS011;6091;51.432;6.880;2022-12-20T06:25:49;0.90;;;0.90;;
12059;SDS011;6091;51.432;6.880;2022-12-20T06:28:17;0.70;;;0.70;;
12059;SDS011;6091;51.432;6.880;2022-12-20T06:30:53;0.80;;;0.80;;
12059;SDS011;6091;51.432;6.880;2022-12-20T06:33:22;0.70;;;0.70;;
12059;SDS011;6091;51.432;6.880;2022-12-20T06:35:50;0.73;;;0.73;;
12059;SDS011;6091;51.432;6.880;2022-12-20T06:38:17;0.80;;;0.80;;
12059;SDS011;6091;51.432;6.880;2022-12-20T06:40:45;0.70;;;0.70;;
12059;SDS011;6091;51.432;6.880;2022-12-20T06:43:11;0.73;;;0.73;;
12059;SDS011;6091;51.432;6.880;2022-12-20T06:45:38;0.70;;;0.70;;
12059;SDS011;6091;51.432;6.880;2022-12-20T06:48:07;0.80;;;0.80;;
12059;SDS011;6091;51.432;6.880;2022-12-20T06:50:36;0.77;;;0.77;;
12059;SDS011;6091;51.432;6.880;2022-12-20T06:53:04;0.70;;;0.70;;
12059;SDS011;6091;51.432;6.880;2022-12-20T06:55:31;0.70;;;0.70;;
12059;SDS011;6091;51.432;6.880;2022-12-20T06:57:58;0.80;;;0.80;;
12059;SDS011;6091;51.432;6.880;2022-12-20T07:00:25;0.70;;;0.70;;
12059;SDS011;6091;51.432;6.880;2022-12-20T07:02:52;0.73;;;0.73;;
12059;SDS011;6091;51.432;6.880;2022-12-20T07:05:20;0.75;;;0.75;;
12059;SDS011;6091;51.432;6.880;2022-12-20T07:07:47;1.02;;;0.90;;
12059;SDS011;6091;51.432;6.880;2022-12-20T07:10:14;0.95;;;0.65;;
12059;SDS011;6091;51.432;6.880;2022-12-20T07:12:41;0.68;;;0.68;;
12059;SDS011;6091;51.432;6.880;2022-12-20T07:15:13;0.70;;;0.70;;
12059;SDS011;6091;51.432;6.880;2022-12-20T07:17:42;0.65;;;0.65;;
12059;SDS011;6091;51.432;6.880;2022-12-20T07:20:11;0.70;;;0.70;;
12059;SDS011;6091;51.432;6.880;2022-12-20T07:22:40;0.80;;;0.80;;
12059;SDS011;6091;51.432;6.880;2022-12-20T07:25:09;0.60;;;0.60;;
12059;SDS011;6091;51.432;6.880;2022-12-20T07:27:36;0.80;;;0.80;;
12059;SDS011;6091;51.432;6.880;2022-12-20T07:30:03;1.77;;;0.93;;
12059;SDS011;6091;51.432;6.880;2022-12-20T07:32:31;0.70;;;0.70;;
12059;SDS011;6091;51.432;6.880;2022-12-20T07:34:58;0.90;;;0.90;;
12059;SDS011;6091;51.432;6.880;2022-12-20T07:37:29;2.25;;;0.98;;
12059;SDS011;6091;51.432;6.880;2022-12-20T07:39:56;0.80;;;0.80;;
12059;SDS011;6091;51.432;6.880;2022-12-20T07:42:23;1.77;;;0.70;;
12059;SDS011;6091;51.432;6.880;2022-12-20T07:45:00;0.80;;;0.80;;
12059;SDS011;6091;51.432;6.880;2022-12-20T07:47:28;1.15;;;0.80;;
12059;SDS011;6091;51.432;6.880;2022-12-20T07:49:55;0.85;;;0.85;;
12059;SDS011;6091;51.432;6.880;2022-12-20T07:52:22;2.08;;;1.10;;
12059;SDS011;6091;51.432;6.880;2022-12-20T07:54:53;0.88;;;0.85;;
12059;SDS011;6091;51.432;6.880;2022-12-20T07:57:29;1.48;;;0.80;;
12059;SDS011;6091;51.432;6.880;2022-12-20T08:00:02;0.95;;;0.70;;
12059;SDS011;6091;51.432;6.880;2022-12-20T08:05:42;5.00;;;1.40;;
12059;SDS011;6091;51.432;6.880;2022-12-20T08:08:16;1.60;;;0.95;;
12059;SDS011;6091;51.432;6.880;2022-12-20T08:10:44;4.13;;;1.23;;
12059;SDS011;6091;51.432;6.880;2022-12-20T08:13:12;6.90;;;1.42;;
12059;SDS011;6091;51.432;6.880;2022-12-20T08:15:39;3.78;;;1.50;;
12059;SDS011;6091;51.432;6.880;2022-12-20T08:18:06;4.00;;;1.50;;
12059;SDS011;6091;51.432;6.880;2022-12-20T08:20:33;7.32;;;1.77;;
12059;SDS011;6091;51.432;6.880;2022-12-20T08:23:03;5.38;;;1.63;;
12059;SDS011;6091;51.432;6.880;2022-12-20T08:25:30;7.22;;;1.70;;
12059;SDS011;6091;51.432;6.880;2022-12-20T08:28:07;5.65;;;1.58;;
12059;SDS011;6091;51.432;6.880;2022-12-20T08:30:37;10.48;;;1.52;;
12059;SDS011;6091;51.432;6.880;2022-12-20T08:33:04;5.57;;;1.90;;
12059;SDS011;6091;51.432;6.880;2022-12-20T08:35:34;5.68;;;1.52;;
12059;SDS011;6091;51.432;6.880;2022-12-20T08:38:01;5.63;;;1.75;;
12059;SDS011;6091;51.432;6.880;2022-12-20T08:40:28;5.05;;;1.20;;
12059;SDS011;6091;51.432;6.880;2022-12-20T08:42:55;1.70;;;1.15;;
12059;SDS011;6091;51.432;6.880;2022-12-20T08:45:23;4.03;;;1.33;;
12059;SDS011;6091;51.432;6.880;2022-12-20T08:47:50;7.22;;;1.17;;
12059;SDS011;6091;51.432;6.880;2022-12-20T08:50:19;2.33;;;1.10;;
12059;SDS011;6091;51.432;6.880;2022-12-20T08:52:46;3.83;;;1.15;;
12059;SDS011;6091;51.432;6.880;2022-12-20T08:55:13;4.13;;;1.30;;
12059;SDS011;6091;51.432;6.880;2022-12-20T08:57:40;2.47;;;1.30;;
12059;SDS011;6091;51.432;6.880;2022-12-20T09:00:07;2.88;;;1.40;;
12059;SDS011;6091;51.432;6.880;2022-12-20T09:02:36;3.53;;;1.40;;
12059;SDS011;6091;51.432;6.880;2022-12-20T09:05:03;2.20;;;1.30;;
12059;SDS011;6091;51.432;6.880;2022-12-20T09:07:31;2.90;;;1.15;;
12059;SDS011;6091;51.432;6.880;2022-12-20T09:09:58;4.03;;;1.23;;
12059;SDS011;6091;51.432;6.880;2022-12-20T09:12:28;2.45;;;1.25;;
12059;SDS011;6091;51.432;6.880;2022-12-20T09:14:55;2.45;;;1.05;;
12059;SDS011;6091;51.432;6.880;2022-12-20T09:17:22;5.05;;;1.10;;
12059;SDS011;6091;51.432;6.880;2022-12-20T09:19:52;3.30;;;1.17;;
12059;SDS011;6091;51.432;6.880;2022-12-20T09:22:20;5.47;;;1.52;;
12059;SDS011;6091;51.432;6.880;2022-12-20T09:24:48;4.00;;;1.20;;
12059;SDS011;6091;51.432;6.880;2022-12-20T09:27:15;2.80;;;1.10;;
12059;SDS011;6091;51.432;6.880;2022-12-20T09:29:42;4.00;;;1.00;;
12059;SDS011;6091;51.432;6.880;2022-12-20T09:32:09;1.65;;;1.30;;
12059;SDS011;6091;51.432;6.880;2022-12-20T09:34:36;4.80;;;1.42;;
12059;SDS011;6091;51.432;6.880;2022-12-20T09:37:04;5.05;;;1.52;;
12059;SDS011;6091;51.432;6.880;2022-12-20T09:39:31;2.70;;;1.05;;
12059;SDS011;6091;51.432;6.880;2022-12-20T09:41:59;3.42;;;1.17;;
12059;SDS011;6091;51.432;6.880;2022-12-20T09:44:27;4.50;;;1.30;;
12059;SDS011;6091;51.432;6.880;2022-12-20T09:47:00;4.50;;;1.23;;
12059;SDS011;6091;51.432;6.880;2022-12-20T09:49:38;3.50;;;1.15;;
12059;SDS011;6091;51.432;6.880;2022-12-20T09:52:17;3.10;;;1.00;;
12059;SDS011;6091;51.432;6.880;2022-12-20T09:57:52;1.85;;;1.40;;
12059;SDS011;6091;51.432;6.880;2022-12-20T10:00:46;2.00;;;1.10;;
12059;SDS011;6091;51.432;6.880;2022-12-20T10:03:29;2.08;;;1.25;;
12059;SDS011;6091;51.432;6.880;2022-12-20T10:06:07;1.65;;;1.00;;
12059;SDS011;6091;51.432;6.880;2022-12-20T10:21:46;1.58;;;1.13;;
12059;SDS011;6091;51.432;6.880;2022-12-20T10:27:51;1.35;;;0.95;;
12059;SDS011;6091;51.432;6.880;2022-12-20T10:30:23;4.22;;;1.30;;
12059;SDS011;6091;51.432;6.880;2022-12-20T10:32:54;2.05;;;1.20;;
12059;SDS011;6091;51.432;6.880;2022-12-20T10:35:24;1.40;;;1.13;;
12059;SDS011;6091;51.432;6.880;2022-12-20T10:40:41;2.40;;;1.00;;
12059;SDS011;6091;51.432;6.880;2022-12-20T10:44:33;1.23;;;1.00;;
12059;SDS011;6091;51.432;6.880;2022-12-20T10:46:44;1.70;;;0.93;;
12059;SDS011;6091;51.432;6.880;2022-12-20T10:49:34;0.93;;;0.88;;
12059;SDS011;6091;51.432;6.880;2022-12-20T10:54:35;1.20;;;0.93;;
12059;SDS011;6091;51.432;6.880;2022-12-20T10:59:53;3.97;;;1.20;;
12059;SDS011;6091;51.432;6.880;2022-12-20T11:07:58;1.13;;;0.95;;
12059;SDS011;6091;51.432;6.880;2022-12-20T11:13:50;1.73;;;1.15;;
12059;SDS011;6091;51.432;6.880;2022-12-20T11:16:21;1.10;;;1.00;;
12059;SDS011;6091;51.432;6.880;2022-12-20T11:19:37;2.17;;;1.08;;
12059;SDS011;6091;51.432;6.880;2022-12-20T11:28:38;4.65;;;1.30;;
12059;SDS011;6091;51.432;6.880;2022-12-20T11:38:24;1.52;;;0.90;;
12059;SDS011;6091;51.432;6.880;2022-12-20T11:40:42;3.70;;;1.20;;
12059;SDS011;6091;51.432;6.880;2022-12-20T11:44:05;2.70;;;1.30;;
12059;SDS011;6091;51.432;6.880;2022-12-20T11:52:47;3.78;;;1.33;;
12059;SDS011;6091;51.432;6.880;2022-12-20T11:55:35;3.10;;;1.50;;
12059;SDS011;6091;51.432;6.880;2022-12-20T11:58:11;3.15;;;1.20;;
12059;SDS011;6091;51.432;6.880;2022-12-20T12:00:48;1.50;;;1.40;;
12059;SDS011;6091;51.432;6.880;2022-12-20T12:03:33;3.17;;;1.20;;
12059;SDS011;6091;51.432;6.880;2022-12-20T12:06:09;3.17;;;1.17;;
12059;SDS011;6091;51.432;6.880;2022-12-20T12:12:14;2.63;;;1.10;;
12059;SDS011;6091;51.432;6.880;2022-12-20T12:15:05;1.45;;;1.20;;
12059;SDS011;6091;51.432;6.880;2022-12-20T12:17:59;2.17;;;1.10;;
12059;SDS011;6091;51.432;6.880;2022-12-20T12:23:25;1.95;;;1.00;;
12059;SDS011;6091;51.432;6.880;2022-12-20T12:26:50;5.85;;;1.50;;
12059;SDS011;6091;51.432;6.880;2022-12-20T12:29:18;3.22;;;1.33;;
12059;SDS011;6091;51.432;6.880;2022-12-20T12:44:04;2.40;;;1.48;;
12059;SDS011;6091;51.432;6.880;2022-12-20T12:47:12;3.28;;;1.38;;
12059;SDS011;6091;51.432;6.880;2022-12-20T12:50:36;4.93;;;1.58;;
12059;SDS011;6091;51.432;6.880;2022-12-20T12:53:18;8.07;;;1.70;;
12059;SDS011;6091;51.432;6.880;2022-12-20T13:04:23;4.60;;;1.50;;
12059;SDS011;6091;51.432;6.880;2022-12-20T13:11:10;2.72;;;1.17;;
12059;SDS011;6091;51.432;6.880;2022-12-20T13:16:47;1.98;;;1.13;;
12059;SDS011;6091;51.432;6.880;2022-12-20T13:19:50;3.85;;;1.40;;
12059;SDS011;6091;51.432;6.880;2022-12-20T13:22:23;3.15;;;1.27;;
12059;SDS011;6091;51.432;6.880;2022-12-20T13:24:52;2.58;;;1.13;;
12059;SDS011;6091;51.432;6.880;2022-12-20T13:27:54;2.70;;;1.38;;
12059;SDS011;6091;51.432;6.880;2022-12-20T13:30:42;1.73;;;1.20;;
12059;SDS011;6091;51.432;6.880;2022-12-20T13:33:17;2.85;;;1.20;;
12059;SDS011;6091;51.432;6.880;2022-12-20T13:35:57;2.70;;;1.15;;
12059;SDS011;6091;51.432;6.880;2022-12-20T13:38:53;3.17;;;1.30;;
12059;SDS011;6091;51.432;6.880;2022-12-20T13:49:53;3.15;;;1.20;;
12059;SDS011;6091;51.432;6.880;2022-12-20T13:52:25;2.15;;;1.17;;
12059;SDS011;6091;51.432;6.880;2022-12-20T13:55:00;2.05;;;1.40;;
12059;SDS011;6091;51.432;6.880;2022-12-20T13:57:44;1.92;;;1.13;;
12059;SDS011;6091;51.432;6.880;2022-12-20T14:00:13;1.95;;;1.10;;
12059;SDS011;6091;51.432;6.880;2022-12-20T14:02:44;3.13;;;1.30;;
12059;SDS011;6091;51.432;6.880;2022-12-20T14:05:16;3.63;;;1.30;;
12059;SDS011;6091;51.432;6.880;2022-12-20T14:07:59;3.58;;;1.40;;
12059;SDS011;6091;51.432;6.880;2022-12-20T14:10:38;2.88;;;1.15;;
12059;SDS011;6091;51.432;6.880;2022-12-20T14:13:16;1.60;;;1.08;;
12059;SDS011;6091;51.432;6.880;2022-12-20T14:15:48;1.42;;;1.20;;
12059;SDS011;6091;51.432;6.880;2022-12-20T14:18:18;1.85;;;1.10;;
12059;SDS011;6091;51.432;6.880;2022-12-20T14:20:50;3.88;;;1.20;;
12059;SDS011;6091;51.432;6.880;2022-12-20T14:23:33;3.10;;;1.30;;
12059;SDS011;6091;51.432;6.880;2022-12-20T14:26:50;2.47;;;1.10;;
12059;SDS011;6091;51.432;6.880;2022-12-20T14:29:17;3.28;;;1.05;;
12059;SDS011;6091;51.432;6.880;2022-12-20T14:31:49;2.13;;;1.20;;
12059;SDS011;6091;51.432;6.880;2022-12-20T14:34:21;1.73;;;1.20;;
12059;SDS011;6091;51.432;6.880;2022-12-20T14:37:23;3.78;;;1.40;;
12059;SDS011;6091;51.432;6.880;2022-12-20T14:40:13;2.03;;;1.13;;
12059;SDS011;6091;51.432;6.880;2022-12-20T14:42:44;2.78;;;1.20;;
12059;SDS011;6091;51.432;6.880;2022-12-20T14:50:37;3.13;;;1.23;;
12059;SDS011;6091;51.432;6.880;2022-12-20T14:53:16;4.00;;;1.50;;
12059;SDS011;6091;51.432;6.880;2022-12-20T14:55:48;2.13;;;1.30;;
12059;SDS011;6091;51.432;6.880;2022-12-20T14:58:22;4.13;;;1.20;;
12059;SDS011;6091;51.432;6.880;2022-12-20T15:00:59;1.45;;;1.33;;
12059;SDS011;6091;51.432;6.880;2022-12-20T15:03:52;2.17;;;1.10;;
12059;SDS011;6091;51.432;6.880;2022-12-20T15:06:36;4.60;;;1.30;;
12059;SDS011;6091;51.432;6.880;2022-12-20T15:09:09;3.60;;;1.25;;
12059;SDS011;6091;51.432;6.880;2022-12-20T15:11:37;3.70;;;1.15;;
12059;SDS011;6091;51.432;6.880;2022-12-20T15:17:09;2.20;;;1.05;;
12059;SDS011;6091;51.432;6.880;2022-12-20T15:19:39;1.60;;;1.00;;
12059;SDS011;6091;51.432;6.880;2022-12-20T15:22:12;1.33;;;1.23;;
12059;SDS011;6091;51.432;6.880;2022-12-20T15:24:43;1.02;;;0.93;;
12059;SDS011;6091;51.432;6.880;2022-12-20T15:27:11;2.22;;;1.30;;
12059;SDS011;6091;51.432;6.880;2022-12-20T15:29:40;3.92;;;1.10;;
12059;SDS011;6091;51.432;6.880;2022-12-20T15:34:48;3.53;;;1.10;;
12059;SDS011;6091;51.432;6.880;2022-12-20T15:37:15;2.58;;;1.13;;
12059;SDS011;6091;51.432;6.880;2022-12-20T15:39:44;3.22;;;1.23;;
12059;SDS011;6091;51.432;6.880;2022-12-20T15:42:12;2.45;;;1.33;;
12059;SDS011;6091;51.432;6.880;2022-12-20T15:44:43;4.32;;;1.30;;
12059;SDS011;6091;51.432;6.880;2022-12-20T15:47:11;1.85;;;1.17;;
12059;SDS011;6091;51.432;6.880;2022-12-20T15:49:38;1.63;;;0.98;;
12059;SDS011;6091;51.432;6.880;2022-12-20T15:52:18;2.47;;;1.10;;
12059;SDS011;6091;51.432;6.880;2022-12-20T15:54:47;2.50;;;1.15;;
12059;SDS011;6091;51.432;6.880;2022-12-20T15:57:15;2.72;;;1.20;;
12059;SDS011;6091;51.432;6.880;2022-12-20T15:59:42;3.67;;;1.20;;
12059;SDS011;6091;51.432;6.880;2022-12-20T16:02:28;2.88;;;1.27;;
12059;SDS011;6091;51.432;6.880;2022-12-20T16:04:56;2.08;;;1.33;;
12059;SDS011;6091;51.432;6.880;2022-12-20T16:07:24;1.67;;;1.20;;
12059;SDS011;6091;51.432;6.880;2022-12-20T16:09:51;3.55;;;1.27;;
12059;SDS011;6091;51.432;6.880;2022-12-20T16:12:29;2.58;;;1.20;;
12059;SDS011;6091;51.432;6.880;2022-12-20T16:14:59;5.28;;;1.45;;
12059;SDS011;6091;51.432;6.880;2022-12-20T16:17:27;5.15;;;1.20;;
12059;SDS011;6091;51.432;6.880;2022-12-20T16:19:54;3.80;;;1.20;;
12059;SDS011;6091;51.432;6.880;2022-12-20T16:22:21;1.60;;;1.20;;
12059;SDS011;6091;51.432;6.880;2022-12-20T16:24:49;3.33;;;1.30;;
12059;SDS011;6091;51.432;6.880;2022-12-20T16:27:17;4.05;;;1.73;;
12059;SDS011;6091;51.432;6.880;2022-12-20T16:29:45;1.95;;;1.10;;
12059;SDS011;6091;51.432;6.880;2022-12-20T16:32:16;1.55;;;1.10;;
12059;SDS011;6091;51.432;6.880;2022-12-20T16:34:50;3.63;;;1.50;;
12059;SDS011;6091;51.432;6.880;2022-12-20T16:37:17;1.73;;;1.10;;
12059;SDS011;6091;51.432;6.880;2022-12-20T16:39:44;2.25;;;1.50;;
12059;SDS011;6091;51.432;6.880;2022-12-20T16:42:15;4.38;;;1.27;;
12059;SDS011;6091;51.432;6.880;2022-12-20T16:44:50;3.47;;;1.27;;
12059;SDS011;6091;51.432;6.880;2022-12-20T16:47:19;3.17;;;1.20;;
12059;SDS011;6091;51.432;6.880;2022-12-20T16:49:47;3.63;;;1.55;;
12059;SDS011;6091;51.432;6.880;2022-12-20T16:52:19;3.90;;;1.30;;
12059;SDS011;6091;51.432;6.880;2022-12-20T16:54:48;5.10;;;1.38;;
12059;SDS011;6091;51.432;6.880;2022-12-20T16:57:15;3.05;;;1.10;;
12059;SDS011;6091;51.432;6.880;2022-12-20T16:59:42;2.22;;;1.30;;
12059;SDS011;6091;51.432;6.880;2022-12-20T17:02:26;3.28;;;1.38;;
12059;SDS011;6091;51.432;6.880;2022-12-20T17:04:59;2.97;;;1.10;;
12059;SDS011;6091;51.432;6.880;2022-12-20T17:07:27;1.35;;;1.02;;
12059;SDS011;6091;51.432;6.880;2022-12-20T17:09:54;2.45;;;1.23;;
12059;SDS011;6091;51.432;6.880;2022-12-20T17:12:36;1.13;;;1.02;;
12059;SDS011;6091;51.432;6.880;2022-12-20T17:15:03;4.05;;;1.20;;
12059;SDS011;6091;51.432;6.880;2022-12-20T17:17:31;2.72;;;1.08;;
12059;SDS011;6091;51.432;6.880;2022-12-20T17:19:58;4.68;;;1.30;;
12059;SDS011;6091;51.432;6.880;2022-12-20T17:22:25;1.98;;;0.95;;
12059;SDS011;6091;51.432;6.880;2022-12-20T17:25:33;1.98;;;1.10;;
12059;SDS011;6091;51.432;6.880;2022-12-20T17:28:00;1.88;;;1.10;;
12059;SDS011;6091;51.432;6.880;2022-12-20T17:30:27;3.08;;;0.98;;
12059;SDS011;6091;51.432;6.880;2022-12-20T17:32:54;3.72;;;1.30;;
12059;SDS011;6091;51.432;6.880;2022-12-20T17:35:26;2.40;;;1.50;;
12059;SDS011;6091;51.432;6.880;2022-12-20T17:37:56;2.97;;;1.27;;
12059;SDS011;6091;51.432;6.880;2022-12-20T17:40:27;2.17;;;1.02;;
12059;SDS011;6091;51.432;6.880;2022-12-20T17:42:54;2.20;;;0.95;;
12059;SDS011;6091;51.432;6.880;2022-12-20T17:47:58;3.17;;;1.40;;
12059;SDS011;6091;51.432;6.880;2022-12-20T17:50:25;4.40;;;1.08;;